METAR Data
IDs: Format: Raw Decoded Include TAF

Data at: 1900 UTC 31 Jul 2021

KRZL 311855Z AUTO 26006KT 10SM BKN033 BKN060 BKN110 23/15 A3002 RMK AO2